Time,TemperatureF,DewpointF,PressureIn,WindDirection,WindDirectionDegrees,WindSpeedMPH,WindSpeedGustMPH,Humidity,HourlyPrecipIn,Conditions,Clouds,dailyrainin,SolarRadiationWatts/m^2,SoftwareType,DateUTC
2013-01-06 00:00:00,71.0,59.9,30.17,NNE,23,7.0,-999.0,68,0.00,,,0.00,0,Wunderground v.1.15,2013-01-06 10:00:00,
2013-01-06 00:05:00,71.0,59.9,30.17,NNE,23,7.0,-999.0,68,0.00,,,0.00,0,Wunderground v.1.15,2013-01-06 10:05:00,
2013-01-06 00:10:00,71.0,59.9,30.17,NNE,23,7.0,-999.0,68,0.00,,,0.00,0,Wunderground v.1.15,2013-01-06 10:10:00,
2013-01-06 00:15:00,71.0,59.9,30.17,NNE,23,7.0,-999.0,68,0.00,,,0.00,0,Wunderground v.1.15,2013-01-06 10:15:00,
2013-01-06 00:20:00,71.0,59.9,30.17,NNE,23,7.0,-999.0,68,0.00,,,0.00,0,Wunderground v.1.15,2013-01-06 10:20:00,
2013-01-06 00:25:00,71.0,59.9,30.17,NNE,23,7.0,-999.0,68,0.00,,,0.00,0,Wunderground v.1.15,2013-01-06 10:25:00,
2013-01-06 00:30:00,71.0,59.9,30.17,NNE,23,7.0,-999.0,68,0.00,,,0.00,0,Wunderground v.1.15,2013-01-06 10:30:00,
2013-01-06 00:35:00,71.0,59.9,30.17,NNE,23,7.0,-999.0,68,0.00,,,0.00,0,Wunderground v.1.15,2013-01-06 10:35:00,
2013-01-06 00:40:00,71.0,59.9,30.17,NNE,23,7.0,-999.0,68,0.00,,,0.00,0,Wunderground v.1.15,2013-01-06 10:40:00,
2013-01-06 00:45:00,71.1,62.0,30.17,NNE,23,7.0,-999.0,73,0.00,,,0.00,0,Wunderground v.1.15,2013-01-06 10:45:00,
2013-01-06 00:50:00,71.1,62.0,30.17,NNE,23,7.0,-999.0,73,0.00,,,0.00,0,Wunderground v.1.15,2013-01-06 10:50:00,
2013-01-06 00:55:00,71.1,62.0,30.17,NNE,23,7.0,-999.0,73,0.00,,,0.00,0,Wunderground v.1.15,2013-01-06 10:55:00,
2013-01-06 01:00:00,71.1,62.0,30.17,NNE,23,7.0,-999.0,73,0.00,,,0.00,0,Wunderground v.1.15,2013-01-06 11:00:00,
2013-01-06 01:05:00,71.1,62.0,30.17,NNE,23,7.0,-999.0,73,0.00,,,0.00,0,Wunderground v.1.15,2013-01-06 11:05:00,
2013-01-06 01:10:00,71.1,62.0,30.17,NNE,23,7.0,-999.0,73,0.00,,,0.00,0,Wunderground v.1.15,2013-01-06 11:10:00,
2013-01-06 01:15:00,70.4,63.6,30.16,NNE,23,7.0,-999.0,79,0.00,,,0.00,0,Wunderground v.1.15,2013-01-06 11:15:00,
2013-01-06 01:20:00,70.4,63.6,30.16,NNE,23,7.0,-999.0,79,0.00,,,0.00,0,Wunderground v.1.15,2013-01-06 11:20:00,
2013-01-06 01:25:00,70.4,63.6,30.16,NNE,23,7.0,-999.0,79,0.00,,,0.00,0,Wunderground v.1.15,2013-01-06 11:25:00,
2013-01-06 01:30:00,70.4,63.6,30.16,NNE,23,7.0,-999.0,79,0.00,,,0.00,0,Wunderground v.1.15,2013-01-06 11:30:00,
2013-01-06 01:35:00,70.4,63.6,30.16,NNE,23,7.0,-999.0,79,0.00,,,0.00,0,Wunderground v.1.15,2013-01-06 11:35:00,
2013-01-06 01:40:00,70.4,63.6,30.16,NNE,23,7.0,-999.0,79,0.00,,,0.00,0,Wunderground v.1.15,2013-01-06 11:40:00,
2013-01-06 01:45:00,70.4,62.8,30.15,NNE,23,7.0,-999.0,77,0.00,,,0.00,0,Wunderground v.1.15,2013-01-06 11:45:00,
2013-01-06 01:50:00,70.4,62.8,30.15,NNE,23,7.0,-999.0,77,0.00,,,0.00,0,Wunderground v.1.15,2013-01-06 11:50:00,
2013-01-06 01:55:00,70.4,62.8,30.15,NNE,23,7.0,-999.0,77,0.00,,,0.00,0,Wunderground v.1.15,2013-01-06 11:55:00,
2013-01-06 02:00:00,70.4,62.8,30.15,NNE,23,7.0,-999.0,77,0.00,,,0.00,0,Wunderground v.1.15,2013-01-06 12:00:00,
2013-01-06 02:05:00,70.4,62.8,30.15,NNE,23,7.0,-999.0,77,0.00,,,0.00,0,Wunderground v.1.15,2013-01-06 12:05:00,
2013-01-06 02:10:00,70.4,62.8,30.15,NNE,23,7.0,-999.0,77,0.00,,,0.00,0,Wunderground v.1.15,2013-01-06 12:10:00,
2013-01-06 02:15:00,70.0,63.5,30.16,NNE,23,6.0,-999.0,80,0.00,,,0.00,0,Wunderground v.1.15,2013-01-06 12:15:00,
2013-01-06 02:20:00,70.0,63.5,30.16,NNE,23,6.0,-999.0,80,0.00,,,0.00,0,Wunderground v.1.15,2013-01-06 12:20:00,
2013-01-06 02:25:00,70.0,63.5,30.16,NNE,23,6.0,-999.0,80,0.00,,,0.00,0,Wunderground v.1.15,2013-01-06 12:25:00,
2013-01-06 02:30:00,70.0,63.5,30.16,NNE,23,6.0,-999.0,80,0.00,,,0.00,0,Wunderground v.1.15,2013-01-06 12:30:00,
2013-01-06 02:35:00,70.0,63.5,30.16,NNE,23,6.0,-999.0,80,0.00,,,0.00,0,Wunderground v.1.15,2013-01-06 12:35:00,
2013-01-06 02:40:00,70.0,63.5,30.16,NNE,23,6.0,-999.0,80,0.00,,,0.00,0,Wunderground v.1.15,2013-01-06 12:40:00,
2013-01-06 02:45:00,70.2,63.4,30.15,NNE,23,7.0,-999.0,79,0.00,,,0.00,0,Wunderground v.1.15,2013-01-06 12:45:00,
2013-01-06 02:50:00,70.2,63.4,30.15,NNE,23,7.0,-999.0,79,0.00,,,0.00,0,Wunderground v.1.15,2013-01-06 12:50:00,
2013-01-06 02:55:00,70.2,63.4,30.15,NNE,23,7.0,-999.0,79,0.00,,,0.00,0,Wunderground v.1.15,2013-01-06 12:55:00,
2013-01-06 03:00:00,70.2,63.4,30.15,NNE,23,7.0,-999.0,79,0.00,,,0.00,0,Wunderground v.1.15,2013-01-06 13:00:00,
2013-01-06 03:05:00,70.2,63.4,30.15,NNE,23,7.0,-999.0,79,0.00,,,0.00,0,Wunderground v.1.15,2013-01-06 13:05:00,
2013-01-06 03:10:00,70.2,63.4,30.15,NNE,23,7.0,-999.0,79,0.00,,,0.00,0,Wunderground v.1.15,2013-01-06 13:10:00,
2013-01-06 03:15:00,69.8,63.3,30.14,NNE,23,6.0,-999.0,80,0.00,,,0.00,0,Wunderground v.1.15,2013-01-06 13:15:00,
2013-01-06 03:20:00,69.8,63.3,30.14,NNE,23,6.0,-999.0,80,0.00,,,0.00,0,Wunderground v.1.15,2013-01-06 13:20:00,
2013-01-06 03:25:00,69.8,63.3,30.14,NNE,23,6.0,-999.0,80,0.00,,,0.00,0,Wunderground v.1.15,2013-01-06 13:25:00,
2013-01-06 03:30:00,69.8,63.3,30.14,NNE,23,6.0,-999.0,80,0.00,,,0.00,0,Wunderground v.1.15,2013-01-06 13:30:00,
2013-01-06 03:35:00,69.8,63.3,30.14,NNE,23,6.0,-999.0,80,0.00,,,0.00,0,Wunderground v.1.15,2013-01-06 13:35:00,
2013-01-06 03:40:00,69.8,63.3,30.14,NNE,23,6.0,-999.0,80,0.00,,,0.00,0,Wunderground v.1.15,2013-01-06 13:40:00,
2013-01-06 03:45:00,70.0,63.5,30.14,NNE,23,6.0,-999.0,80,0.00,,,0.00,0,Wunderground v.1.15,2013-01-06 13:45:00,
2013-01-06 03:50:00,70.0,63.5,30.14,NNE,23,6.0,-999.0,80,0.00,,,0.00,0,Wunderground v.1.15,2013-01-06 13:50:00,
2013-01-06 03:55:00,70.0,63.5,30.14,NNE,23,6.0,-999.0,80,0.00,,,0.00,0,Wunderground v.1.15,2013-01-06 13:55:00,
2013-01-06 04:00:00,70.0,63.5,30.14,NNE,23,6.0,-999.0,80,0.00,,,0.00,0,Wunderground v.1.15,2013-01-06 14:00:00,
2013-01-06 04:05:00,70.0,63.5,30.14,NNE,23,6.0,-999.0,80,0.00,,,0.00,0,Wunderground v.1.15,2013-01-06 14:05:00,
2013-01-06 04:10:00,70.0,63.5,30.14,NNE,23,6.0,-999.0,80,0.00,,,0.00,0,Wunderground v.1.15,2013-01-06 14:10:00,
2013-01-06 04:15:00,69.8,62.6,30.13,NNE,23,7.0,-999.0,78,0.00,,,0.00,0,Wunderground v.1.15,2013-01-06 14:15:00,
2013-01-06 04:20:00,69.8,62.6,30.13,NNE,23,7.0,-999.0,78,0.00,,,0.00,0,Wunderground v.1.15,2013-01-06 14:20:00,
2013-01-06 04:25:00,69.8,62.6,30.13,NNE,23,7.0,-999.0,78,0.00,,,0.00,0,Wunderground v.1.15,2013-01-06 14:25:00,
2013-01-06 04:30:00,69.8,62.6,30.13,NNE,23,7.0,-999.0,78,0.00,,,0.00,0,Wunderground v.1.15,2013-01-06 14:30:00,
2013-01-06 04:35:00,69.8,62.6,30.13,NNE,23,7.0,-999.0,78,0.00,,,0.00,0,Wunderground v.1.15,2013-01-06 14:35:00,
2013-01-06 04:40:00,69.8,62.6,30.13,NNE,23,7.0,-999.0,78,0.00,,,0.00,0,Wunderground v.1.15,2013-01-06 14:40:00,
2013-01-06 04:45:00,69.8,62.3,30.14,NNE,23,6.0,-999.0,77,0.00,,,0.00,0,Wunderground v.1.15,2013-01-06 14:45:00,
2013-01-06 04:50:00,69.8,62.3,30.14,NNE,23,6.0,-999.0,77,0.00,,,0.00,0,Wunderground v.1.15,2013-01-06 14:50:00,
2013-01-06 04:55:00,69.8,62.3,30.14,NNE,23,6.0,-999.0,77,0.00,,,0.00,0,Wunderground v.1.15,2013-01-06 14:55:00,
2013-01-06 05:00:00,69.8,62.3,30.14,NNE,23,6.0,-999.0,77,0.00,,,0.00,0,Wunderground v.1.15,2013-01-06 15:00:00,
2013-01-06 05:05:00,69.8,62.3,30.14,NNE,23,6.0,-999.0,77,0.00,,,0.00,0,Wunderground v.1.15,2013-01-06 15:05:00,
2013-01-06 05:10:00,69.8,62.3,30.14,NNE,23,6.0,-999.0,77,0.00,,,0.00,0,Wunderground v.1.15,2013-01-06 15:10:00,
2013-01-06 05:15:00,69.4,62.2,30.14,NNE,23,7.0,-999.0,78,0.00,,,0.00,0,Wunderground v.1.15,2013-01-06 15:15:00,
2013-01-06 05:20:00,69.4,62.2,30.14,NNE,23,7.0,-999.0,78,0.00,,,0.00,0,Wunderground v.1.15,2013-01-06 15:20:00,
2013-01-06 05:25:00,69.4,62.2,30.14,NNE,23,7.0,-999.0,78,0.00,,,0.00,0,Wunderground v.1.15,2013-01-06 15:25:00,
2013-01-06 05:30:00,69.4,62.2,30.14,NNE,23,7.0,-999.0,78,0.00,,,0.00,0,Wunderground v.1.15,2013-01-06 15:30:00,
2013-01-06 05:35:00,69.4,62.2,30.14,NNE,23,7.0,-999.0,78,0.00,,,0.00,0,Wunderground v.1.15,2013-01-06 15:35:00,
2013-01-06 05:40:00,69.4,62.2,30.14,NNE,23,7.0,-999.0,78,0.00,,,0.00,0,Wunderground v.1.15,2013-01-06 15:40:00,
2013-01-06 05:45:00,69.2,61.7,30.15,NNE,23,6.0,-999.0,77,0.00,,,0.00,0,Wunderground v.1.15,2013-01-06 15:45:00,
2013-01-06 05:50:00,69.2,61.7,30.15,NNE,23,6.0,-999.0,77,0.00,,,0.00,0,Wunderground v.1.15,2013-01-06 15:50:00,
2013-01-06 05:55:00,69.2,61.7,30.15,NNE,23,6.0,-999.0,77,0.00,,,0.00,0,Wunderground v.1.15,2013-01-06 15:55:00,
2013-01-06 06:00:00,69.2,61.7,30.15,NNE,23,6.0,-999.0,77,0.00,,,0.00,0,Wunderground v.1.15,2013-01-06 16:00:00,
2013-01-06 06:05:00,69.2,61.7,30.15,NNE,23,6.0,-999.0,77,0.00,,,0.00,0,Wunderground v.1.15,2013-01-06 16:05:00,
2013-01-06 06:10:00,69.2,61.7,30.15,NNE,23,6.0,-999.0,77,0.00,,,0.00,0,Wunderground v.1.15,2013-01-06 16:10:00,
2013-01-06 06:15:00,70.7,62.0,30.15,NNE,23,10.0,-999.0,74,0.00,,,0.00,0,Wunderground v.1.15,2013-01-06 16:15:00,
2013-01-06 06:20:00,70.7,62.0,30.15,NNE,23,10.0,-999.0,74,0.00,,,0.00,0,Wunderground v.1.15,2013-01-06 16:20:00,
2013-01-06 06:25:00,70.7,62.0,30.15,NNE,23,10.0,-999.0,74,0.00,,,0.00,0,Wunderground v.1.15,2013-01-06 16:25:00,
2013-01-06 06:30:00,70.7,62.0,30.15,NNE,23,10.0,-999.0,74,0.00,,,0.00,0,Wunderground v.1.15,2013-01-06 16:30:00,
2013-01-06 06:35:00,70.7,62.0,30.15,NNE,23,10.0,-999.0,74,0.00,,,0.00,0,Wunderground v.1.15,2013-01-06 16:35:00,
2013-01-06 06:40:00,70.7,62.0,30.15,NNE,23,10.0,-999.0,74,0.00,,,0.00,0,Wunderground v.1.15,2013-01-06 16:40:00,
2013-01-06 06:45:00,70.5,61.4,30.15,NE,45,7.0,-999.0,73,0.00,,,0.00,0,Wunderground v.1.15,2013-01-06 16:45:00,
2013-01-06 06:50:00,70.5,61.4,30.15,NE,45,7.0,-999.0,73,0.00,,,0.00,0,Wunderground v.1.15,2013-01-06 16:50:00,
2013-01-06 06:55:00,70.5,61.4,30.15,NE,45,7.0,-999.0,73,0.00,,,0.00,0,Wunderground v.1.15,2013-01-06 16:55:00,
2013-01-06 07:00:00,70.5,61.4,30.15,NE,45,7.0,-999.0,73,0.00,,,0.00,0,Wunderground v.1.15,2013-01-06 17:00:00,
2013-01-06 07:05:00,70.5,61.4,30.15,NE,45,7.0,-999.0,73,0.00,,,0.00,0,Wunderground v.1.15,2013-01-06 17:05:00,
2013-01-06 07:10:00,70.5,61.4,30.15,NE,45,7.0,-999.0,73,0.00,,,0.00,0,Wunderground v.1.15,2013-01-06 17:10:00,
2013-01-06 07:15:00,69.1,60.8,30.16,NNE,23,3.0,-999.0,75,0.00,,,0.00,12,Wunderground v.1.15,2013-01-06 17:15:00,
2013-01-06 07:20:00,69.1,60.8,30.16,NNE,23,3.0,-999.0,75,0.00,,,0.00,12,Wunderground v.1.15,2013-01-06 17:20:00,
2013-01-06 07:25:00,69.1,60.8,30.16,NNE,23,3.0,-999.0,75,0.00,,,0.00,12,Wunderground v.1.15,2013-01-06 17:25:00,
2013-01-06 07:30:00,69.1,60.8,30.16,NNE,23,3.0,-999.0,75,0.00,,,0.00,12,Wunderground v.1.15,2013-01-06 17:30:00,
2013-01-06 07:35:00,69.1,60.8,30.16,NNE,23,3.0,-999.0,75,0.00,,,0.00,12,Wunderground v.1.15,2013-01-06 17:35:00,
2013-01-06 07:40:00,69.1,60.8,30.16,NNE,23,3.0,-999.0,75,0.00,,,0.00,12,Wunderground v.1.15,2013-01-06 17:40:00,
2013-01-06 07:45:00,71.6,61.3,30.17,NNE,23,4.0,-999.0,70,0.00,,,0.00,70,Wunderground v.1.15,2013-01-06 17:45:00,
2013-01-06 07:50:00,71.6,61.3,30.17,NNE,23,4.0,-999.0,70,0.00,,,0.00,70,Wunderground v.1.15,2013-01-06 17:50:00,
2013-01-06 07:55:00,71.6,61.3,30.17,NNE,23,4.0,-999.0,70,0.00,,,0.00,70,Wunderground v.1.15,2013-01-06 17:55:00,
2013-01-06 08:00:00,71.6,61.3,30.17,NNE,23,4.0,-999.0,70,0.00,,,0.00,70,Wunderground v.1.15,2013-01-06 18:00:00,
2013-01-06 08:05:00,71.6,61.3,30.17,NNE,23,4.0,-999.0,70,0.00,,,0.00,70,Wunderground v.1.15,2013-01-06 18:05:00,
2013-01-06 08:10:00,71.6,61.3,30.17,NNE,23,4.0,-999.0,70,0.00,,,0.00,70,Wunderground v.1.15,2013-01-06 18:10:00,
2013-01-06 08:15:00,74.2,62.5,30.17,NNE,23,10.0,-999.0,67,0.00,,,0.00,192,Wunderground v.1.15,2013-01-06 18:15:00,
2013-01-06 08:20:00,74.2,62.5,30.17,NNE,23,10.0,-999.0,67,0.00,,,0.00,192,Wunderground v.1.15,2013-01-06 18:20:00,
2013-01-06 08:25:00,74.2,62.5,30.17,NNE,23,10.0,-999.0,67,0.00,,,0.00,192,Wunderground v.1.15,2013-01-06 18:25:00,
2013-01-06 08:30:00,74.2,62.5,30.17,NNE,23,10.0,-999.0,67,0.00,,,0.00,192,Wunderground v.1.15,2013-01-06 18:30:00,
2013-01-06 08:35:00,74.2,62.5,30.17,NNE,23,10.0,-999.0,67,0.00,,,0.00,192,Wunderground v.1.15,2013-01-06 18:35:00,
2013-01-06 08:40:00,74.2,62.5,30.17,NNE,23,10.0,-999.0,67,0.00,,,0.00,192,Wunderground v.1.15,2013-01-06 18:40:00,
2013-01-06 08:45:00,75.6,63.4,30.18,ENE,68,8.0,-999.0,66,0.00,,,0.00,306,Wunderground v.1.15,2013-01-06 18:45:00,
2013-01-06 08:50:00,75.6,63.4,30.18,ENE,68,8.0,-999.0,66,0.00,,,0.00,306,Wunderground v.1.15,2013-01-06 18:50:00,
2013-01-06 08:55:00,75.6,63.4,30.18,ENE,68,8.0,-999.0,66,0.00,,,0.00,306,Wunderground v.1.15,2013-01-06 18:55:00,
2013-01-06 09:00:00,75.6,63.4,30.18,ENE,68,8.0,-999.0,66,0.00,,,0.00,306,Wunderground v.1.15,2013-01-06 19:00:00,
2013-01-06 09:05:00,75.6,63.4,30.18,ENE,68,8.0,-999.0,66,0.00,,,0.00,306,Wunderground v.1.15,2013-01-06 19:05:00,
2013-01-06 09:10:00,75.6,63.4,30.18,ENE,68,8.0,-999.0,66,0.00,,,0.00,306,Wunderground v.1.15,2013-01-06 19:10:00,
2013-01-06 09:15:00,75.8,64.5,30.18,NE,45,11.0,-999.0,68,0.00,,,0.00,416,Wunderground v.1.15,2013-01-06 19:15:00,
2013-01-06 09:20:00,75.8,64.5,30.18,NE,45,11.0,-999.0,68,0.00,,,0.00,416,Wunderground v.1.15,2013-01-06 19:20:00,
2013-01-06 09:25:00,75.8,64.5,30.18,NE,45,11.0,-999.0,68,0.00,,,0.00,416,Wunderground v.1.15,2013-01-06 19:25:00,
2013-01-06 09:30:00,75.8,64.5,30.18,NE,45,11.0,-999.0,68,0.00,,,0.00,416,Wunderground v.1.15,2013-01-06 19:30:00,
2013-01-06 09:35:00,75.8,64.5,30.18,NE,45,11.0,-999.0,68,0.00,,,0.00,416,Wunderground v.1.15,2013-01-06 19:35:00,
2013-01-06 09:40:00,75.8,64.5,30.18,NE,45,11.0,-999.0,68,0.00,,,0.00,416,Wunderground v.1.15,2013-01-06 19:40:00,
2013-01-06 09:45:00,77.8,64.2,30.17,NNE,23,9.0,-999.0,63,0.00,,,0.00,507,Wunderground v.1.15,2013-01-06 19:45:00,
2013-01-06 09:50:00,77.8,64.2,30.17,NNE,23,9.0,-999.0,63,0.00,,,0.00,507,Wunderground v.1.15,2013-01-06 19:50:00,
2013-01-06 09:55:00,77.8,64.2,30.17,NNE,23,9.0,-999.0,63,0.00,,,0.00,507,Wunderground v.1.15,2013-01-06 19:55:00,
2013-01-06 10:00:00,77.8,64.2,30.17,NNE,23,9.0,-999.0,63,0.00,,,0.00,507,Wunderground v.1.15,2013-01-06 20:00:00,
2013-01-06 10:05:00,77.8,64.2,30.17,NNE,23,9.0,-999.0,63,0.00,,,0.00,507,Wunderground v.1.15,2013-01-06 20:05:00,
2013-01-06 10:10:00,77.8,64.2,30.17,NNE,23,9.0,-999.0,63,0.00,,,0.00,507,Wunderground v.1.15,2013-01-06 20:10:00,
2013-01-06 10:15:00,77.2,65.4,30.16,ENE,68,10.0,-999.0,67,0.00,,,0.00,518,Wunderground v.1.15,2013-01-06 20:15:00,
2013-01-06 10:20:00,77.2,65.4,30.16,ENE,68,10.0,-999.0,67,0.00,,,0.00,518,Wunderground v.1.15,2013-01-06 20:20:00,
2013-01-06 10:25:00,77.2,65.4,30.16,ENE,68,10.0,-999.0,67,0.00,,,0.00,518,Wunderground v.1.15,2013-01-06 20:25:00,
2013-01-06 10:30:00,77.2,65.4,30.16,ENE,68,10.0,-999.0,67,0.00,,,0.00,518,Wunderground v.1.15,2013-01-06 20:30:00,
2013-01-06 10:35:00,77.2,65.4,30.16,ENE,68,10.0,-999.0,67,0.00,,,0.00,518,Wunderground v.1.15,2013-01-06 20:35:00,
2013-01-06 10:40:00,77.2,65.4,30.16,ENE,68,10.0,-999.0,67,0.00,,,0.00,518,Wunderground v.1.15,2013-01-06 20:40:00,
2013-01-06 10:45:00,77.2,67.9,30.15,ENE,68,11.0,-999.0,73,0.00,,,0.00,673,Wunderground v.1.15,2013-01-06 20:45:00,
2013-01-06 10:50:00,77.2,67.9,30.15,ENE,68,11.0,-999.0,73,0.00,,,0.00,673,Wunderground v.1.15,2013-01-06 20:50:00,
2013-01-06 10:55:00,77.2,67.9,30.15,ENE,68,11.0,-999.0,73,0.00,,,0.00,673,Wunderground v.1.15,2013-01-06 20:55:00,
2013-01-06 11:00:00,77.2,67.9,30.15,ENE,68,11.0,-999.0,73,0.00,,,0.00,673,Wunderground v.1.15,2013-01-06 21:00:00,
2013-01-06 11:05:00,77.2,67.9,30.15,ENE,68,11.0,-999.0,73,0.00,,,0.00,673,Wunderground v.1.15,2013-01-06 21:05:00,
2013-01-06 11:10:00,77.2,67.9,30.15,ENE,68,11.0,-999.0,73,0.00,,,0.00,673,Wunderground v.1.15,2013-01-06 21:10:00,
2013-01-06 11:15:00,74.0,67.8,30.16,ESE,113,12.0,-999.0,81,0.00,,,0.00,741,Wunderground v.1.15,2013-01-06 21:15:00,
2013-01-06 11:20:00,74.0,67.8,30.16,ESE,113,12.0,-999.0,81,0.00,,,0.00,741,Wunderground v.1.15,2013-01-06 21:20:00,
2013-01-06 11:25:00,74.0,67.8,30.16,ESE,113,12.0,-999.0,81,0.00,,,0.00,741,Wunderground v.1.15,2013-01-06 21:25:00,
2013-01-06 11:30:00,74.0,67.8,30.16,ESE,113,12.0,-999.0,81,0.00,,,0.00,741,Wunderground v.1.15,2013-01-06 21:30:00,
2013-01-06 11:35:00,74.0,67.8,30.16,ESE,113,12.0,-999.0,81,0.00,,,0.00,741,Wunderground v.1.15,2013-01-06 21:35:00,
2013-01-06 11:40:00,74.0,67.8,30.16,ESE,113,12.0,-999.0,81,0.00,,,0.00,741,Wunderground v.1.15,2013-01-06 21:40:00,
2013-01-06 11:45:00,74.7,68.5,30.13,ENE,68,12.0,-999.0,81,0.00,,,0.00,845,Wunderground v.1.15,2013-01-06 21:45:00,
2013-01-06 11:50:00,74.7,68.5,30.13,ENE,68,12.0,-999.0,81,0.00,,,0.00,845,Wunderground v.1.15,2013-01-06 21:50:00,
2013-01-06 11:55:00,74.7,68.5,30.13,ENE,68,12.0,-999.0,81,0.00,,,0.00,845,Wunderground v.1.15,2013-01-06 21:55:00,
2013-01-06 12:00:00,74.7,68.5,30.13,ENE,68,12.0,-999.0,81,0.00,,,0.00,845,Wunderground v.1.15,2013-01-06 22:00:00,
2013-01-06 12:05:00,74.7,68.5,30.13,ENE,68,12.0,-999.0,81,0.00,,,0.00,845,Wunderground v.1.15,2013-01-06 22:05:00,
2013-01-06 12:10:00,74.7,68.5,30.13,ENE,68,12.0,-999.0,81,0.00,,,0.00,845,Wunderground v.1.15,2013-01-06 22:10:00,
2013-01-06 12:15:00,76.9,68.4,30.10,ENE,68,11.0,-999.0,75,0.00,,,0.00,833,Wunderground v.1.15,2013-01-06 22:15:00,
2013-01-06 12:20:00,76.9,68.4,30.10,ENE,68,11.0,-999.0,75,0.00,,,0.00,833,Wunderground v.1.15,2013-01-06 22:20:00,
2013-01-06 12:25:00,76.9,68.4,30.10,ENE,68,11.0,-999.0,75,0.00,,,0.00,833,Wunderground v.1.15,2013-01-06 22:25:00,
2013-01-06 12:30:00,76.9,68.4,30.10,ENE,68,11.0,-999.0,75,0.00,,,0.00,833,Wunderground v.1.15,2013-01-06 22:30:00,
2013-01-06 12:35:00,76.9,68.4,30.10,ENE,68,11.0,-999.0,75,0.00,,,0.00,833,Wunderground v.1.15,2013-01-06 22:35:00,
2013-01-06 12:40:00,76.9,68.4,30.10,ENE,68,11.0,-999.0,75,0.00,,,0.00,833,Wunderground v.1.15,2013-01-06 22:40:00,
2013-01-06 12:45:00,78.6,68.0,30.09,ENE,68,11.0,-999.0,70,0.00,,,0.00,698,Wunderground v.1.15,2013-01-06 22:45:00,
2013-01-06 12:50:00,78.6,68.0,30.09,ENE,68,11.0,-999.0,70,0.00,,,0.00,698,Wunderground v.1.15,2013-01-06 22:50:00,
2013-01-06 12:55:00,78.6,68.0,30.09,ENE,68,11.0,-999.0,70,0.00,,,0.00,698,Wunderground v.1.15,2013-01-06 22:55:00,
2013-01-06 13:00:00,78.6,68.0,30.09,ENE,68,11.0,-999.0,70,0.00,,,0.00,698,Wunderground v.1.15,2013-01-06 23:00:00,
2013-01-06 13:05:00,78.6,68.0,30.09,ENE,68,11.0,-999.0,70,0.00,,,0.00,698,Wunderground v.1.15,2013-01-06 23:05:00,
2013-01-06 13:10:00,78.6,68.0,30.09,ENE,68,11.0,-999.0,70,0.00,,,0.00,698,Wunderground v.1.15,2013-01-06 23:10:00,
2013-01-06 13:15:00,75.4,69.5,30.09,ESE,113,13.0,-999.0,82,0.00,,,0.00,795,Wunderground v.1.15,2013-01-06 23:15:00,
2013-01-06 13:20:00,75.4,69.5,30.09,ESE,113,13.0,-999.0,82,0.00,,,0.00,795,Wunderground v.1.15,2013-01-06 23:20:00,
2013-01-06 13:25:00,75.4,69.5,30.09,ESE,113,13.0,-999.0,82,0.00,,,0.00,795,Wunderground v.1.15,2013-01-06 23:25:00,
2013-01-06 13:30:00,75.4,69.5,30.09,ESE,113,13.0,-999.0,82,0.00,,,0.00,795,Wunderground v.1.15,2013-01-06 23:30:00,
2013-01-06 13:35:00,75.4,69.5,30.09,ESE,113,13.0,-999.0,82,0.00,,,0.00,795,Wunderground v.1.15,2013-01-06 23:35:00,
2013-01-06 13:40:00,75.4,69.5,30.09,ESE,113,13.0,-999.0,82,0.00,,,0.00,795,Wunderground v.1.15,2013-01-06 23:40:00,
2013-01-06 13:50:00,75.2,67.1,30.08,ENE,68,14.0,-999.0,76,0.00,,,0.00,759,Wunderground v.1.15,2013-01-06 23:50:00,
2013-01-06 13:55:00,75.2,67.1,30.08,ENE,68,14.0,-999.0,76,0.00,,,0.00,759,Wunderground v.1.15,2013-01-06 23:55:00,
2013-01-06 14:00:00,75.2,67.1,30.08,ENE,68,14.0,-999.0,76,0.00,,,0.00,759,Wunderground v.1.15,2013-01-07 00:00:00,
2013-01-06 14:05:00,75.2,67.1,30.08,ENE,68,14.0,-999.0,76,0.00,,,0.00,759,Wunderground v.1.15,2013-01-07 00:05:00,
2013-01-06 14:10:00,75.2,67.1,30.08,ENE,68,14.0,-999.0,76,0.00,,,0.00,759,Wunderground v.1.15,2013-01-07 00:10:00,
2013-01-06 14:15:00,74.8,68.9,30.08,ENE,68,12.0,-999.0,82,0.00,,,0.00,525,Wunderground v.1.15,2013-01-07 00:15:00,
2013-01-06 14:20:00,74.8,68.9,30.08,ENE,68,12.0,-999.0,82,0.00,,,0.00,525,Wunderground v.1.15,2013-01-07 00:20:00,
2013-01-06 14:25:00,74.8,68.9,30.08,ENE,68,12.0,-999.0,82,0.00,,,0.00,525,Wunderground v.1.15,2013-01-07 00:25:00,
2013-01-06 14:30:00,74.8,68.9,30.08,ENE,68,12.0,-999.0,82,0.00,,,0.00,525,Wunderground v.1.15,2013-01-07 00:30:00,
2013-01-06 14:35:00,74.8,68.9,30.08,ENE,68,12.0,-999.0,82,0.00,,,0.00,525,Wunderground v.1.15,2013-01-07 00:35:00,
2013-01-06 14:40:00,74.8,68.9,30.08,ENE,68,12.0,-999.0,82,0.00,,,0.00,525,Wunderground v.1.15,2013-01-07 00:40:00,
2013-01-06 14:45:00,74.6,67.7,30.08,ENE,68,10.0,-999.0,79,0.00,,,0.00,237,Wunderground v.1.15,2013-01-07 00:45:00,
2013-01-06 14:50:00,74.6,67.7,30.08,ENE,68,10.0,-999.0,79,0.00,,,0.00,237,Wunderground v.1.15,2013-01-07 00:50:00,
2013-01-06 14:55:00,74.6,67.7,30.08,ENE,68,10.0,-999.0,79,0.00,,,0.00,237,Wunderground v.1.15,2013-01-07 00:55:00,
2013-01-06 15:00:00,74.6,67.7,30.08,ENE,68,10.0,-999.0,79,0.00,,,0.00,237,Wunderground v.1.15,2013-01-07 01:00:00,
2013-01-06 15:05:00,74.6,67.7,30.08,ENE,68,10.0,-999.0,79,0.00,,,0.00,237,Wunderground v.1.15,2013-01-07 01:05:00,
2013-01-06 15:10:00,74.6,67.7,30.08,ENE,68,10.0,-999.0,79,0.00,,,0.00,237,Wunderground v.1.15,2013-01-07 01:10:00,
2013-01-06 15:15:00,75.1,67.0,30.07,ENE,68,11.0,-999.0,76,0.00,,,0.00,235,Wunderground v.1.15,2013-01-07 01:15:00,
2013-01-06 15:20:00,75.1,67.0,30.07,ENE,68,11.0,-999.0,76,0.00,,,0.00,235,Wunderground v.1.15,2013-01-07 01:20:00,
2013-01-06 15:25:00,75.1,67.0,30.07,ENE,68,11.0,-999.0,76,0.00,,,0.00,235,Wunderground v.1.15,2013-01-07 01:25:00,
2013-01-06 15:45:00,73.9,68.1,30.08,ENE,68,9.0,-999.0,82,0.00,,,0.00,148,Wunderground v.1.15,2013-01-07 01:45:00,
2013-01-06 16:10:00,73.9,68.1,30.08,ENE,68,9.0,-999.0,82,0.00,,,0.00,148,Wunderground v.1.15,2013-01-07 02:10:00,
2013-01-06 16:40:00,73.6,66.3,30.08,ENE,68,9.0,-999.0,78,0.00,,,0.00,109,Wunderground v.1.15,2013-01-07 02:40:00,
2013-01-06 17:05:00,74.1,66.0,30.08,NNE,23,9.0,-999.0,76,0.00,,,0.00,90,Wunderground v.1.15,2013-01-07 03:05:00,
2013-01-06 17:30:00,73.4,66.5,30.09,NNE,23,7.0,-999.0,79,0.00,,,0.00,35,Wunderground v.1.15,2013-01-07 03:30:00,
2013-01-06 18:00:00,72.4,66.6,30.08,NNE,23,5.0,-999.0,82,0.00,,,0.00,18,Wunderground v.1.15,2013-01-07 04:00:00,
2013-01-06 18:25:00,72.2,66.0,30.09,NNE,23,6.0,-999.0,81,0.00,,,0.00,0,Wunderground v.1.15,2013-01-07 04:25:00,
2013-01-06 18:55:00,72.3,65.1,30.09,NE,45,6.0,-999.0,78,0.00,,,0.00,0,Wunderground v.1.15,2013-01-07 04:55:00,
2013-01-06 19:20:00,72.3,65.1,30.10,NNE,23,6.0,-999.0,78,0.00,,,0.00,0,Wunderground v.1.15,2013-01-07 05:20:00,
2013-01-06 19:50:00,71.8,64.9,30.10,NE,45,5.0,-999.0,79,0.00,,,0.00,0,Wunderground v.1.15,2013-01-07 05:50:00,
2013-01-06 20:15:00,72.1,65.2,30.11,NE,45,6.0,-999.0,79,0.00,,,0.00,0,Wunderground v.1.15,2013-01-07 06:15:00,
2013-01-06 20:45:00,71.7,65.6,30.12,NNE,23,8.0,-999.0,81,0.00,,,0.00,0,Wunderground v.1.15,2013-01-07 06:45:00,
2013-01-06 21:10:00,71.7,65.6,30.12,NNE,23,8.0,-999.0,81,0.00,,,0.00,0,Wunderground v.1.15,2013-01-07 07:10:00,
2013-01-06 21:40:00,70.9,65.5,30.13,NNE,23,5.0,-999.0,83,0.00,,,0.00,0,Wunderground v.1.15,2013-01-07 07:40:00,
2013-01-06 22:05:00,70.7,64.9,30.12,NNE,23,6.0,-999.0,82,0.00,,,0.00,0,Wunderground v.1.15,2013-01-07 08:05:00,
2013-01-06 22:30:00,70.0,64.6,30.11,NNE,23,4.0,-999.0,83,0.00,,,0.00,0,Wunderground v.1.15,2013-01-07 08:30:00,
2013-01-06 23:00:00,70.2,65.1,30.11,NE,45,4.0,-999.0,84,0.00,,,0.00,0,Wunderground v.1.15,2013-01-07 09:00:00,
2013-01-06 23:25:00,69.5,65.5,30.10,ENE,68,5.0,-999.0,87,0.00,,,0.00,0,Wunderground v.1.15,2013-01-07 09:25:00,
2013-01-06 23:50:00,71.3,64.8,30.10,NE,45,7.0,-999.0,80,0.00,,,0.00,0,Wunderground v.1.15,2013-01-07 09:50:00,